Time;durP1;ratioP1;P1;durP2;ratioP2;P2;SDS_P1;SDS_P2;PMS_P1;PMS_P2;Temp;Humidity;BMP_temperature;BMP_pressure;BME280_temperature;BME280_humidity;BME280_pressure;Samples;Min_cycle;Max_cycle;Signal;HPM_P1;HPM_P2
2023/08/25 00:01:24;;;;;;;10.02;7.05;;;19.50;99.90;;;;;;5094631;28;20479;-74
2023/08/25 00:03:49;;;;;;;14.25;8.48;;;19.50;99.90;;;;;;5075650;28;20036;-74
2023/08/25 00:06:15;;;;;;;13.10;8.68;;;19.50;99.90;;;;;;5094316;28;20017;-74
2023/08/25 00:08:40;;;;;;;11.40;7.68;;;19.50;99.90;;;;;;5076358;28;20383;-74
2023/08/25 00:11:06;;;;;;;14.35;7.00;;;19.50;99.90;;;;;;5094550;28;20458;-74
2023/08/25 00:13:35;;;;;;;13.00;7.95;;;19.50;99.90;;;;;;5094913;28;20423;-74
2023/08/25 00:16:08;;;;;;;15.60;8.70;;;19.50;99.90;;;;;;5076203;28;20024;-75
2023/08/25 00:18:34;;;;;;;15.88;9.00;;;19.50;99.90;;;;;;5094498;28;20438;-74
2023/08/25 00:21:00;;;;;;;12.80;8.65;;;19.50;99.90;;;;;;5094202;28;20028;-74
2023/08/25 00:23:25;;;;;;;18.48;10.32;;;19.50;99.90;;;;;;5094112;28;20047;-74
2023/08/25 00:25:53;;;;;;;14.63;8.60;;;19.50;99.90;;;;;;5094109;28;20031;-75
2023/08/25 00:28:19;;;;;;;19.67;9.75;;;19.50;99.90;;;;;;5075802;28;20031;-75
2023/08/25 00:30:44;;;;;;;14.68;9.43;;;19.40;99.90;;;;;;5094110;28;20020;-74
2023/08/25 00:33:10;;;;;;;13.05;9.60;;;19.40;99.90;;;;;;5094047;28;20122;-74
2023/08/25 00:35:35;;;;;;;13.32;8.98;;;19.40;99.90;;;;;;5094141;28;20024;-74
2023/08/25 00:38:01;;;;;;;14.18;9.85;;;19.30;99.90;;;;;;5093921;28;20068;-74
2023/08/25 00:40:27;;;;;;;16.38;9.25;;;19.30;99.90;;;;;;5094580;28;20035;-74
2023/08/25 00:42:52;;;;;;;17.65;8.95;;;19.20;99.90;;;;;;5092611;28;20028;-74
2023/08/25 00:45:18;;;;;;;15.40;9.18;;;19.20;99.90;;;;;;5093740;28;20030;-74
2023/08/25 00:47:43;;;;;;;17.02;10.30;;;19.20;99.90;;;;;;5094384;28;20096;-74
2023/08/25 00:50:11;;;;;;;17.52;10.25;;;19.20;99.90;;;;;;5093712;28;20432;-74
2023/08/25 00:52:38;;;;;;;17.95;9.85;;;19.10;99.90;;;;;;5075668;28;20012;-74
2023/08/25 00:55:05;;;;;;;19.08;10.43;;;19.10;99.90;;;;;;5075553;28;20024;-75
2023/08/25 00:57:31;;;;;;;16.58;11.35;;;19.10;99.90;;;;;;5075663;28;20410;-74
2023/08/25 00:59:57;;;;;;;20.40;12.07;;;19.10;99.90;;;;;;5093718;28;20107;-74
2023/08/25 01:02:23;;;;;;;19.92;12.02;;;19.10;99.90;;;;;;5093620;28;20032;-74
2023/08/25 01:04:49;;;;;;;18.67;11.70;;;19.00;99.90;;;;;;5093900;28;20031;-73
2023/08/25 01:07:16;;;;;;;16.75;11.25;;;19.10;99.90;;;;;;5093636;28;20012;-74
2023/08/25 01:09:41;;;;;;;16.85;10.48;;;19.00;99.90;;;;;;5093652;28;20035;-74
2023/08/25 01:12:27;;;;;;;18.10;11.45;;;19.00;99.90;;;;;;5093306;28;20021;-74
2023/08/25 01:15:05;;;;;;;24.42;12.38;;;19.00;99.90;;;;;;5093697;28;20028;-74
2023/08/25 01:17:46;;;;;;;20.85;12.95;;;18.90;99.90;;;;;;5093543;28;20024;-74
2023/08/25 01:20:15;;;;;;;21.52;12.60;;;19.00;99.90;;;;;;5075469;28;20047;-73
2023/08/25 01:22:52;;;;;;;20.50;13.32;;;19.00;99.90;;;;;;5075489;28;20020;-74
2023/08/25 01:25:29;;;;;;;21.80;13.02;;;18.90;99.90;;;;;;5093293;28;20036;-74
2023/08/25 01:27:56;;;;;;;20.83;13.65;;;18.90;99.90;;;;;;5075319;28;20020;-74
2023/08/25 01:30:23;;;;;;;19.98;12.70;;;18.90;99.90;;;;;;5093530;28;20016;-74
2023/08/25 01:32:52;;;;;;;18.60;11.55;;;18.80;99.90;;;;;;5093001;28;20129;-74
2023/08/25 01:35:49;;;;;;;20.90;12.93;;;18.80;99.90;;;;;;5075081;28;20376;-74
2023/08/25 01:38:27;;;;;;;24.73;13.38;;;18.70;99.90;;;;;;5058193;28;20093;-76
2023/08/25 01:41:04;;;;;;;21.30;13.57;;;18.80;99.90;;;;;;5093500;28;20103;-75
2023/08/25 01:43:34;;;;;;;24.87;13.70;;;18.70;99.90;;;;;;5093857;28;20032;-75
2023/08/25 01:46:00;;;;;;;18.85;12.80;;;18.70;99.90;;;;;;5093230;28;20066;-74
2023/08/25 01:48:28;;;;;;;23.52;13.23;;;18.60;99.90;;;;;;5091964;28;20024;-75
2023/08/25 01:50:54;;;;;;;20.77;12.98;;;18.60;99.90;;;;;;5074896;28;20483;-75
2023/08/25 01:53:28;;;;;;;26.10;13.90;;;18.60;99.90;;;;;;5093255;28;20021;-75
2023/08/25 01:55:54;;;;;;;29.63;14.60;;;18.60;99.90;;;;;;5093294;28;20025;-75
2023/08/25 01:58:19;;;;;;;24.98;15.55;;;18.70;99.90;;;;;;5093816;28;20490;-75
2023/08/25 02:00:45;;;;;;;33.05;17.50;;;18.70;99.90;;;;;;5093311;28;20016;-74
2023/08/25 02:03:13;;;;;;;30.25;16.80;;;18.80;99.90;;;;;;5092876;28;20024;-74
2023/08/25 02:05:40;;;;;;;28.13;15.82;;;18.80;99.90;;;;;;5092989;28;20371;-75
2023/08/25 02:08:06;;;;;;;33.05;18.25;;;19.10;99.90;;;;;;5093042;28;20095;-74
2023/08/25 02:10:31;;;;;;;31.05;17.13;;;18.90;99.90;;;;;;5093372;28;20063;-74
2023/08/25 02:12:57;;;;;;;31.05;17.65;;;18.90;99.90;;;;;;5074850;28;20020;-75
2023/08/25 02:15:22;;;;;;;30.02;17.13;;;19.00;99.90;;;;;;5092967;28;20027;-75
2023/08/25 02:17:48;;;;;;;41.00;18.98;;;19.00;99.90;;;;;;5092864;28;20073;-75
2023/08/25 02:20:13;;;;;;;37.58;20.08;;;19.10;99.90;;;;;;5074861;28;20021;-74
2023/08/25 02:22:39;;;;;;;34.95;19.95;;;19.10;99.90;;;;;;5092863;28;20392;-74
2023/08/25 02:25:05;;;;;;;39.58;19.92;;;19.50;99.90;;;;;;5092727;28;20506;-75
2023/08/25 02:27:30;;;;;;;57.10;21.60;;;19.10;99.90;;;;;;5075829;28;20093;-75
2023/08/25 02:29:56;;;;;;;49.72;22.70;;;19.20;99.90;;;;;;5095071;28;20019;-75
2023/08/25 02:32:21;;;;;;;45.97;21.85;;;19.20;99.90;;;;;;5094919;28;20016;-75
2023/08/25 02:34:47;;;;;;;39.15;21.65;;;19.20;99.90;;;;;;5096044;28;20069;-75
2023/08/25 02:37:12;;;;;;;42.70;22.48;;;19.20;99.90;;;;;;5096630;28;20110;-75
2023/08/25 02:39:38;;;;;;;45.83;23.70;;;19.30;99.90;;;;;;5096253;28;20364;-75
2023/08/25 02:42:03;;;;;;;52.53;21.83;;;19.30;99.90;;;;;;5095997;28;20027;-75
2023/08/25 02:44:29;;;;;;;42.42;22.05;;;19.30;99.90;;;;;;5095944;28;20020;-74
2023/08/25 02:46:55;;;;;;;54.42;22.20;;;19.30;99.90;;;;;;5096075;28;20027;-75
2023/08/25 02:49:21;;;;;;;65.78;23.35;;;19.30;99.90;;;;;;5096042;28;20024;-75
2023/08/25 02:51:46;;;;;;;68.45;22.58;;;19.30;99.90;;;;;;5096039;28;20502;-75
2023/08/25 02:54:12;;;;;;;57.85;22.17;;;19.30;99.90;;;;;;5096038;28;20507;-75
2023/08/25 02:56:37;;;;;;;161.80;23.92;;;19.30;99.90;;;;;;5095776;28;20483;-75
2023/08/25 02:59:03;;;;;;;76.40;21.27;;;19.30;99.90;;;;;;5094666;28;20024;-75
2023/08/25 03:01:28;;;;;;;72.03;20.88;;;19.30;99.90;;;;;;5077753;28;20111;-75
2023/08/25 03:03:55;;;;;;;138.30;24.05;;;19.30;99.90;;;;;;5077303;28;20024;-75
2023/08/25 03:06:21;;;;;;;63.88;24.23;;;19.20;99.90;;;;;;5095685;28;20020;-75
2023/08/25 03:08:46;;;;;;;81.75;23.00;;;19.30;99.90;;;;;;5095675;28;20046;-75
2023/08/25 03:11:12;;;;;;;95.13;22.40;;;19.50;99.90;;;;;;5095576;28;20073;-74
2023/08/25 03:13:38;;;;;;;115.63;25.27;;;19.30;99.90;;;;;;5095537;28;20054;-74
2023/08/25 03:16:03;;;;;;;67.55;23.80;;;19.40;99.90;;;;;;5094135;28;20027;-74
2023/08/25 03:18:29;;;;;;;82.90;23.98;;;19.30;99.90;;;;;;5077349;28;20031;-75
2023/08/25 03:20:55;;;;;;;139.00;23.95;;;19.20;99.90;;;;;;5095495;28;20024;-74
2023/08/25 03:23:21;;;;;;;63.85;24.40;;;19.30;99.90;;;;;;5095302;28;20024;-75
2023/08/25 03:25:47;;;;;;;107.25;24.30;;;19.10;99.90;;;;;;5077086;28;20181;-74
2023/08/25 03:28:12;;;;;;;67.53;25.42;;;19.30;99.90;;;;;;5077124;28;20411;-74
2023/08/25 03:30:38;;;;;;;59.25;24.95;;;19.50;99.90;;;;;;5095336;28;20069;-75
2023/08/25 03:33:04;;;;;;;56.40;25.77;;;19.30;99.90;;;;;;5095210;28;20024;-75
2023/08/25 03:35:36;;;;;;;67.35;26.35;;;19.30;99.90;;;;;;5095172;28;20016;-74
2023/08/25 03:38:02;;;;;;;56.17;26.98;;;19.30;99.90;;;;;;5095011;28;20024;-74
2023/08/25 03:40:28;;;;;;;58.05;27.23;;;19.30;99.90;;;;;;5095051;28;20047;-75
2023/08/25 03:42:54;;;;;;;59.92;26.58;;;19.30;99.90;;;;;;5094870;28;20077;-75
2023/08/25 03:45:20;;;;;;;57.53;25.70;;;19.40;99.90;;;;;;5094811;28;20395;-75
2023/08/25 03:47:45;;;;;;;60.05;25.85;;;19.40;99.90;;;;;;5095550;28;20027;-74
2023/08/25 03:50:11;;;;;;;49.72;24.15;;;19.40;99.90;;;;;;5094868;28;20028;-74
2023/08/25 03:52:37;;;;;;;54.63;25.10;;;19.40;99.90;;;;;;5094838;28;20020;-74
2023/08/25 03:55:03;;;;;;;50.75;24.83;;;19.40;99.90;;;;;;5094643;28;20028;-75
2023/08/25 03:57:29;;;;;;;46.00;23.70;;;19.40;99.90;;;;;;5094697;28;20112;-75
2023/08/25 03:59:54;;;;;;;47.28;24.52;;;19.40;99.90;;;;;;5076403;28;20055;-75
2023/08/25 04:02:20;;;;;;;48.13;24.73;;;19.40;99.90;;;;;;5094691;28;20356;-74
2023/08/25 04:04:46;;;;;;;47.15;25.02;;;19.40;99.90;;;;;;5094472;28;20032;-74
2023/08/25 04:07:13;;;;;;;50.58;24.98;;;19.40;99.90;;;;;;5095860;28;20029;-74
2023/08/25 04:09:39;;;;;;;46.17;24.20;;;19.40;99.90;;;;;;5094466;28;20162;-75
2023/08/25 04:12:05;;;;;;;45.67;24.35;;;19.40;99.90;;;;;;5094504;28;20038;-73
2023/08/25 04:14:30;;;;;;;46.83;22.98;;;19.40;99.90;;;;;;5094523;28;20094;-74
2023/08/25 04:16:56;;;;;;;48.58;23.08;;;19.30;99.90;;;;;;5094435;28;20020;-74
2023/08/25 04:19:22;;;;;;;50.53;24.33;;;19.40;99.90;;;;;;5094286;28;20028;-74
2023/08/25 04:21:48;;;;;;;46.97;24.38;;;19.40;99.90;;;;;;5094241;28;20098;-74
2023/08/25 04:24:16;;;;;;;47.35;23.48;;;19.40;99.90;;;;;;5094118;28;20043;-73
2023/08/25 04:26:41;;;;;;;45.88;24.20;;;19.40;99.90;;;;;;5076312;28;20043;-74
2023/08/25 04:29:09;;;;;;;46.42;24.65;;;19.40;99.90;;;;;;5094171;28;20012;-74
2023/08/25 04:31:35;;;;;;;49.78;25.75;;;19.40;99.90;;;;;;5094058;28;20024;-74
2023/08/25 04:34:01;;;;;;;41.90;22.75;;;19.40;99.90;;;;;;5075901;28;20024;-73
2023/08/25 04:36:26;;;;;;;46.03;24.42;;;19.40;99.90;;;;;;5093871;28;20032;-73
2023/08/25 04:38:52;;;;;;;44.42;24.25;;;19.40;99.90;;;;;;5094550;28;20020;-74
2023/08/25 04:41:17;;;;;;;43.47;24.00;;;19.40;99.90;;;;;;5075851;28;20030;-74
2023/08/25 04:43:43;;;;;;;48.42;24.75;;;19.40;99.90;;;;;;5093960;28;20073;-74
2023/08/25 04:46:10;;;;;;;45.80;24.33;;;19.40;99.90;;;;;;5075700;28;20027;-75
2023/08/25 04:48:36;;;;;;;43.70;22.70;;;19.40;99.90;;;;;;5093725;28;20429;-75
2023/08/25 04:51:02;;;;;;;45.67;22.65;;;19.40;99.90;;;;;;5075218;28;20020;-74
2023/08/25 04:53:27;;;;;;;47.25;22.40;;;19.40;99.90;;;;;;5094338;28;20130;-74
2023/08/25 04:55:53;;;;;;;47.97;23.85;;;19.40;99.90;;;;;;5093568;28;20095;-76
2023/08/25 04:58:19;;;;;;;43.35;22.58;;;19.40;99.90;;;;;;5093857;28;20089;-74
2023/08/25 05:00:47;;;;;;;44.50;22.70;;;19.40;99.90;;;;;;5093664;28;20024;-74
2023/08/25 05:03:13;;;;;;;42.47;22.50;;;19.50;99.90;;;;;;5093422;28;20044;-74
2023/08/25 05:05:38;;;;;;;44.92;23.38;;;19.40;99.90;;;;;;5093528;28;20029;-74
2023/08/25 05:08:04;;;;;;;45.45;24.20;;;19.50;99.90;;;;;;5093671;28;20016;-75
2023/08/25 05:10:30;;;;;;;43.13;23.50;;;19.50;99.90;;;;;;5093968;28;20081;-74
2023/08/25 05:12:55;;;;;;;41.58;22.48;;;19.50;99.90;;;;;;5094056;28;20016;-75
2023/08/25 05:15:21;;;;;;;41.53;22.15;;;19.50;99.90;;;;;;5093858;28;20024;-74
2023/08/25 05:17:47;;;;;;;43.00;21.85;;;19.50;99.90;;;;;;5093937;28;20024;-74
2023/08/25 05:20:17;;;;;;;40.30;21.52;;;19.50;99.90;;;;;;5093382;28;20035;-74
2023/08/25 05:22:43;;;;;;;41.67;22.20;;;19.50;99.90;;;;;;5075691;28;20035;-74
2023/08/25 05:25:08;;;;;;;39.78;20.80;;;19.60;99.90;;;;;;5093181;28;20381;-75
2023/08/25 05:27:34;;;;;;;44.67;22.67;;;19.60;99.90;;;;;;5093299;28;20433;-75
2023/08/25 05:29:59;;;;;;;39.45;21.45;;;19.60;99.90;;;;;;5093353;28;20050;-74
2023/08/25 05:32:25;;;;;;;39.22;20.88;;;19.60;99.90;;;;;;5093317;28;20078;-74
2023/08/25 05:34:50;;;;;;;39.13;21.45;;;19.70;99.90;;;;;;5093133;28;20450;-74
2023/08/25 05:37:16;;;;;;;37.08;22.20;;;19.70;99.90;;;;;;5093308;28;20077;-74
2023/08/25 05:39:42;;;;;;;44.85;22.17;;;19.70;99.90;;;;;;5075253;28;20026;-74
2023/08/25 05:42:08;;;;;;;43.92;22.63;;;19.70;99.90;;;;;;5075237;28;20019;-74
2023/08/25 05:44:33;;;;;;;41.78;22.10;;;19.70;99.90;;;;;;5093104;28;20024;-74
2023/08/25 05:46:59;;;;;;;39.40;21.90;;;19.70;99.90;;;;;;5093144;28;20031;-74
2023/08/25 05:49:24;;;;;;;41.05;21.80;;;19.70;99.90;;;;;;5093179;28;20062;-73
2023/08/25 05:51:50;;;;;;;43.08;21.95;;;19.70;99.90;;;;;;5093698;28;20048;-74
2023/08/25 05:54:15;;;;;;;45.00;21.40;;;19.80;99.90;;;;;;5093897;28;20478;-74
2023/08/25 05:56:41;;;;;;;36.53;21.38;;;19.80;99.90;;;;;;5092796;28;20028;-74
2023/08/25 05:59:06;;;;;;;40.47;21.33;;;19.80;99.90;;;;;;5092948;28;20024;-74
2023/08/25 06:01:32;;;;;;;43.08;21.42;;;19.80;99.90;;;;;;5093498;28;20426;-74
2023/08/25 06:03:57;;;;;;;41.75;22.48;;;19.80;99.90;;;;;;5077836;28;20443;-74
2023/08/25 06:06:24;;;;;;;40.50;22.23;;;19.90;99.90;;;;;;5096767;28;20020;-77
2023/08/25 06:08:49;;;;;;;44.70;23.55;;;19.90;99.90;;;;;;5096899;28;20012;-76
2023/08/25 06:11:15;;;;;;;40.58;21.73;;;20.00;99.90;;;;;;5096959;28;20543;-76
2023/08/25 06:13:40;;;;;;;40.38;21.25;;;20.00;99.90;;;;;;5097596;28;20031;-75
2023/08/25 06:16:06;;;;;;;38.88;21.58;;;20.00;99.90;;;;;;5096847;28;20016;-76
2023/08/25 06:18:32;;;;;;;39.45;20.45;;;20.00;99.90;;;;;;5078670;28;20068;-76
2023/08/25 06:20:57;;;;;;;42.08;20.38;;;20.00;99.90;;;;;;5097026;28;20035;-76
2023/08/25 06:23:23;;;;;;;45.90;23.25;;;20.00;99.90;;;;;;5096909;28;20020;-76
2023/08/25 06:25:49;;;;;;;36.50;20.02;;;20.10;99.90;;;;;;5096557;28;20024;-76
2023/08/25 06:28:15;;;;;;;42.72;20.98;;;20.10;99.90;;;;;;5096551;28;20016;-75
2023/08/25 06:30:44;;;;;;;39.13;21.25;;;20.10;99.90;;;;;;5096606;28;20035;-75
2023/08/25 06:33:10;;;;;;;40.13;21.05;;;20.20;99.90;;;;;;5078637;28;20115;-76
2023/08/25 06:35:38;;;;;;;38.17;20.25;;;20.50;99.90;;;;;;5104143;27;20059;-78
2023/08/25 06:38:04;;;;;;;35.93;21.17;;;20.20;99.90;;;;;;5116051;28;20034;-80
2023/08/25 06:40:30;;;;;;;38.88;20.80;;;20.30;99.90;;;;;;5118100;28;20034;-78
2023/08/25 06:42:55;;;;;;;43.38;21.85;;;20.30;99.90;;;;;;5119300;28;20024;-78
2023/08/25 06:45:21;;;;;;;38.08;19.60;;;20.40;99.90;;;;;;5120067;28;20035;-78
2023/08/25 06:47:49;;;;;;;36.15;19.75;;;20.40;99.90;;;;;;5119906;28;20383;-79
2023/08/25 06:50:15;;;;;;;37.40;21.13;;;20.50;99.90;;;;;;5119590;28;20099;-79
2023/08/25 06:52:41;;;;;;;33.97;19.60;;;20.50;99.90;;;;;;5119478;28;20400;-79
2023/08/25 06:55:06;;;;;;;37.70;19.75;;;20.70;99.90;;;;;;5101240;28;20032;-78
2023/08/25 06:57:34;;;;;;;38.90;20.15;;;20.70;99.90;;;;;;5119135;28;20053;-77
2023/08/25 06:59:59;;;;;;;43.85;21.00;;;20.80;99.90;;;;;;5118134;28;20368;-80
2023/08/25 07:02:26;;;;;;;38.85;20.25;;;20.90;99.90;;;;;;5118535;28;20030;-78
2023/08/25 07:04:52;;;;;;;36.38;18.80;;;21.10;99.90;;;;;;5119923;28;20538;-80
2023/08/25 07:07:27;;;;;;;37.47;20.23;;;21.10;99.90;;;;;;5119749;28;20051;-78
2023/08/25 07:09:53;;;;;;;39.55;19.60;;;21.20;99.90;;;;;;5099605;28;20024;-78
2023/08/25 07:12:19;;;;;;;38.40;19.52;;;21.30;99.90;;;;;;5118167;28;20012;-78
2023/08/25 07:14:45;;;;;;;35.80;19.02;;;21.40;99.90;;;;;;5117496;28;20042;-77
2023/08/25 07:17:10;;;;;;;36.45;19.73;;;21.50;99.90;;;;;;5099730;28;20023;-77
2023/08/25 07:19:36;;;;;;;32.65;18.05;;;21.50;99.90;;;;;;5117985;28;20031;-77
2023/08/25 07:22:02;;;;;;;38.83;19.50;;;21.60;99.90;;;;;;5117897;28;20023;-78
2023/08/25 07:24:28;;;;;;;38.00;18.90;;;21.60;99.90;;;;;;5100326;28;20046;-78
2023/08/25 07:26:53;;;;;;;37.65;19.98;;;21.70;99.90;;;;;;5100391;28;20027;-79
2023/08/25 07:29:19;;;;;;;39.42;20.05;;;21.60;99.90;;;;;;5119275;28;20027;-77
2023/08/25 07:31:44;;;;;;;39.13;18.65;;;21.60;99.90;;;;;;5100151;28;20106;-79
2023/08/25 07:34:10;;;;;;;42.85;20.15;;;21.50;99.90;;;;;;5117724;28;20032;-78
2023/08/25 07:36:35;;;;;;;34.72;18.80;;;21.60;99.90;;;;;;5117131;28;20034;-78
2023/08/25 07:39:01;;;;;;;38.40;18.70;;;21.70;99.90;;;;;;5116756;28;20038;-79
2023/08/25 07:41:27;;;;;;;37.05;17.73;;;21.80;99.90;;;;;;5117943;28;20027;-78
2023/08/25 07:43:52;;;;;;;36.42;20.25;;;21.80;99.90;;;;;;5117355;28;20038;-79
2023/08/25 07:46:18;;;;;;;37.83;19.75;;;21.90;99.90;;;;;;5116540;28;20042;-76
2023/08/25 07:48:45;;;;;;;37.15;18.75;;;21.90;99.90;;;;;;5117095;28;20085;-80
2023/08/25 07:51:10;;;;;;;38.38;19.70;;;22.00;99.90;;;;;;5099746;28;20022;-79
2023/08/25 07:53:36;;;;;;;36.22;18.40;;;22.00;99.90;;;;;;5117449;28;20383;-78
2023/08/25 07:56:03;;;;;;;35.35;17.60;;;21.90;99.90;;;;;;5117315;28;20024;-77
2023/08/25 07:58:28;;;;;;;39.95;18.58;;;22.00;99.90;;;;;;5099243;28;20020;-78
2023/08/25 08:00:54;;;;;;;36.53;18.02;;;22.10;99.90;;;;;;5098986;28;20022;-78
2023/08/25 08:03:20;;;;;;;36.28;18.23;;;22.20;99.90;;;;;;5098199;28;20391;-80
2023/08/25 08:05:45;;;;;;;37.03;18.00;;;22.50;99.90;;;;;;5115065;28;20032;-77
2023/08/25 08:08:11;;;;;;;35.53;17.65;;;22.90;99.90;;;;;;5114853;28;20019;-76
2023/08/25 08:10:38;;;;;;;35.63;17.30;;;23.20;99.90;;;;;;5114403;28;20023;-77
2023/08/25 08:13:04;;;;;;;34.65;17.30;;;23.40;99.90;;;;;;5096396;28;20055;-77
2023/08/25 08:15:33;;;;;;;29.13;15.70;;;23.60;99.90;;;;;;5096590;28;20137;-76
2023/08/25 08:17:58;;;;;;;26.63;14.10;;;23.70;99.90;;;;;;5114524;28;20027;-75
2023/08/25 08:20:24;;;;;;;33.28;16.60;;;23.60;99.90;;;;;;5114460;28;20028;-77
2023/08/25 08:22:50;;;;;;;26.77;14.80;;;23.50;99.90;;;;;;5114954;28;20478;-76
2023/08/25 08:25:16;;;;;;;26.35;14.77;;;23.30;99.90;;;;;;5113643;28;20031;-77
2023/08/25 08:27:42;;;;;;;28.40;14.77;;;23.10;99.90;;;;;;5114585;28;20487;-77
2023/08/25 08:30:14;;;;;;;27.00;15.10;;;22.90;99.90;;;;;;5114569;28;20020;-77
2023/08/25 08:32:40;;;;;;;29.38;16.27;;;22.70;99.90;;;;;;5114442;28;20028;-77
2023/08/25 08:35:09;;;;;;;30.67;15.85;;;22.50;99.90;;;;;;5114459;28;20040;-77
2023/08/25 08:37:38;;;;;;;32.08;16.40;;;22.40;99.90;;;;;;5114453;28;20026;-77
2023/08/25 08:40:05;;;;;;;32.97;17.45;;;22.30;99.90;;;;;;5095825;28;20026;-76
2023/08/25 08:42:33;;;;;;;38.80;18.45;;;22.20;99.90;;;;;;5114331;28;20024;-76
2023/08/25 08:45:04;;;;;;;37.38;19.70;;;22.10;99.90;;;;;;5095572;28;20023;-76
2023/08/25 08:47:31;;;;;;;41.60;18.38;;;22.00;99.90;;;;;;5095669;28;20073;-76
2023/08/25 08:49:58;;;;;;;40.42;19.58;;;22.00;99.90;;;;;;5095891;28;20027;-77
2023/08/25 08:52:25;;;;;;;42.63;21.63;;;21.90;99.90;;;;;;5113943;28;20022;-77
2023/08/25 08:54:50;;;;;;;38.30;18.95;;;21.90;99.90;;;;;;5114124;28;20410;-77
2023/08/25 08:57:17;;;;;;;38.05;19.83;;;22.00;99.90;;;;;;5114001;28;20028;-77
2023/08/25 08:59:43;;;;;;;34.60;19.20;;;22.10;99.90;;;;;;5114056;28;20042;-76
2023/08/25 09:02:13;;;;;;;35.08;18.45;;;22.10;99.90;;;;;;5113732;28;20016;-76
2023/08/25 09:04:40;;;;;;;40.05;18.63;;;22.20;99.90;;;;;;5113545;28;20402;-75
2023/08/25 09:07:07;;;;;;;36.78;17.77;;;22.20;99.90;;;;;;5095625;28;20046;-77
2023/08/25 09:09:32;;;;;;;37.40;19.40;;;22.30;99.90;;;;;;5113976;28;20494;-76
2023/08/25 09:11:58;;;;;;;37.90;19.33;;;22.40;99.90;;;;;;5095646;28;20024;-76
2023/08/25 09:14:25;;;;;;;37.95;18.70;;;22.60;99.90;;;;;;5113526;28;20540;-75
2023/08/25 09:17:06;;;;;;;36.28;19.15;;;22.50;99.90;;;;;;5095529;28;20123;-76
2023/08/25 09:19:32;;;;;;;40.83;19.38;;;22.70;99.90;;;;;;5114145;28;20026;-76
2023/08/25 09:21:59;;;;;;;33.38;19.35;;;22.80;99.90;;;;;;5113911;28;20077;-76
2023/08/25 09:24:25;;;;;;;31.42;17.70;;;22.90;99.90;;;;;;5113515;28;20073;-77
2023/08/25 09:26:51;;;;;;;48.05;19.02;;;23.10;99.90;;;;;;5095561;28;20012;-76
2023/08/25 09:29:22;;;;;;;34.72;18.83;;;23.10;99.90;;;;;;5095273;28;20107;-76
2023/08/25 09:31:48;;;;;;;39.53;19.10;;;23.30;99.90;;;;;;5095426;28;20028;-76
2023/08/25 09:34:14;;;;;;;33.05;17.58;;;23.50;99.90;;;;;;5093321;28;20024;-76
2023/08/25 09:36:54;;;;;;;32.17;17.58;;;23.50;99.90;;;;;;5094121;28;20106;-76
2023/08/25 09:39:20;;;;;;;36.00;19.00;;;23.50;99.90;;;;;;5097279;28;20051;-76
2023/08/25 09:41:46;;;;;;;34.92;18.00;;;23.40;99.90;;;;;;5097417;28;20077;-77
2023/08/25 09:44:12;;;;;;;37.90;17.38;;;23.20;99.90;;;;;;5097158;28;20032;-77
2023/08/25 09:46:38;;;;;;;36.33;18.02;;;23.10;99.90;;;;;;5097184;28;20035;-76
2023/08/25 09:49:06;;;;;;;35.35;17.58;;;23.10;99.90;;;;;;5097033;28;20387;-76
2023/08/25 09:51:40;;;;;;;32.50;17.33;;;23.00;99.90;;;;;;5097201;28;20023;-77
2023/08/25 09:54:14;;;;;;;32.65;16.73;;;22.90;99.90;;;;;;5079204;28;20023;-77
2023/08/25 09:56:41;;;;;;;35.08;17.67;;;22.80;99.90;;;;;;5096792;28;20483;-77
2023/08/25 09:59:09;;;;;;;34.58;17.80;;;22.80;99.90;;;;;;5097374;28;20016;-77
2023/08/25 10:01:44;;;;;;;33.40;16.77;;;22.80;99.90;;;;;;5096998;28;20024;-76
2023/08/25 10:04:10;;;;;;;37.10;18.25;;;22.80;99.90;;;;;;5078580;28;20439;-76
2023/08/25 10:06:38;;;;;;;29.70;15.77;;;22.80;99.90;;;;;;5096686;28;20024;-77
2023/08/25 10:09:10;;;;;;;31.60;15.88;;;22.80;99.90;;;;;;5096805;28;20415;-76
2023/08/25 10:11:44;;;;;;;29.63;16.17;;;22.70;99.90;;;;;;5096839;28;20067;-76
2023/08/25 10:14:12;;;;;;;32.10;16.95;;;22.60;99.90;;;;;;5097026;28;20103;-77
2023/08/25 10:16:50;;;;;;;31.40;16.85;;;22.60;99.90;;;;;;5096576;28;20024;-76
2023/08/25 10:19:38;;;;;;;28.63;16.13;;;22.80;99.90;;;;;;5096645;28;20501;-77
2023/08/25 10:22:06;;;;;;;29.27;15.65;;;23.10;99.90;;;;;;5096828;28;20127;-77
2023/08/25 10:24:34;;;;;;;29.88;17.50;;;23.50;99.90;;;;;;5078179;28;20031;-77
2023/08/25 10:27:00;;;;;;;26.35;15.80;;;23.70;99.90;;;;;;5096483;28;20016;-76
2023/08/25 10:29:26;;;;;;;28.98;15.13;;;23.80;99.90;;;;;;5096554;28;20103;-76
2023/08/25 10:31:59;;;;;;;31.23;15.05;;;23.80;99.90;;;;;;5096450;28;20104;-77
2023/08/25 10:34:42;;;;;;;29.88;15.25;;;23.70;99.90;;;;;;5096198;28;20074;-77
2023/08/25 10:37:12;;;;;;;31.27;15.73;;;23.60;99.90;;;;;;5096204;28;20043;-77
2023/08/25 10:40:11;;;;;;;30.13;14.98;;;23.50;99.90;;;;;;5077941;28;20497;-77
2023/08/25 10:42:37;;;;;;;27.08;15.43;;;23.40;99.90;;;;;;5096498;28;20035;-77
2023/08/25 10:45:08;;;;;;;35.63;15.90;;;23.30;99.90;;;;;;5096032;28;20028;-76
2023/08/25 10:47:41;;;;;;;28.50;15.07;;;23.20;99.90;;;;;;5088605;28;20042;-75
2023/08/25 10:50:07;;;;;;;29.02;14.98;;;23.10;99.90;;;;;;5116070;28;20451;-76
2023/08/25 10:52:33;;;;;;;30.73;15.82;;;23.00;99.90;;;;;;5116584;28;20020;-76
2023/08/25 10:55:23;;;;;;;28.60;16.25;;;22.90;99.90;;;;;;5116562;28;20088;-76
2023/08/25 10:57:52;;;;;;;49.22;17.48;;;22.80;99.90;;;;;;5116362;28;20372;-77
2023/08/25 11:00:30;;;;;;;35.25;16.30;;;22.70;99.90;;;;;;5098171;28;20493;-76
2023/08/25 11:02:56;;;;;;;29.95;16.52;;;22.60;99.90;;;;;;5116162;28;20085;-76
2023/08/25 11:05:41;;;;;;;33.42;17.00;;;22.60;99.90;;;;;;5116005;28;20569;-76
2023/08/25 11:08:24;;;;;;;38.97;17.75;;;22.60;99.90;;;;;;5116466;28;20011;-77
2023/08/25 11:11:12;;;;;;;31.63;17.77;;;22.60;99.90;;;;;;5116184;28;20039;-76
2023/08/25 11:13:41;;;;;;;36.38;17.55;;;22.70;99.90;;;;;;5116331;28;20090;-76
2023/08/25 11:16:12;;;;;;;35.78;17.02;;;22.80;99.90;;;;;;5097680;28;20449;-76
2023/08/25 11:18:42;;;;;;;32.47;15.43;;;23.10;99.90;;;;;;5097363;28;20493;-76
2023/08/25 11:21:14;;;;;;;21.10;12.52;;;23.10;99.90;;;;;;5113957;28;20471;-75
2023/08/25 11:23:44;;;;;;;21.88;11.07;;;23.20;99.90;;;;;;5115688;28;20019;-75
2023/08/25 11:26:15;;;;;;;19.17;11.43;;;23.30;99.90;;;;;;5115456;28;20043;-76
2023/08/25 11:28:41;;;;;;;18.92;10.10;;;23.40;99.90;;;;;;5115762;28;20057;-76
2023/08/25 11:31:07;;;;;;;17.98;10.05;;;23.60;99.90;;;;;;5115417;28;20390;-76
2023/08/25 11:33:33;;;;;;;16.75;9.48;;;23.70;99.90;;;;;;5115379;28;20098;-76
2023/08/25 11:35:59;;;;;;;17.35;9.93;;;23.80;99.90;;;;;;5097093;28;20024;-76
2023/08/25 11:38:28;;;;;;;20.20;9.75;;;23.80;99.90;;;;;;5115445;28;20031;-76
2023/08/25 11:40:55;;;;;;;18.42;8.52;;;23.80;99.90;;;;;;5115393;28;20050;-76
2023/08/25 11:43:26;;;;;;;18.38;8.60;;;23.80;99.90;;;;;;5115317;28;20070;-76
2023/08/25 11:45:52;;;;;;;16.83;7.90;;;23.70;99.90;;;;;;5115323;28;20047;-75
2023/08/25 11:48:17;;;;;;;14.70;8.05;;;23.60;99.90;;;;;;5097120;28;20105;-75
2023/08/25 11:50:43;;;;;;;15.48;7.40;;;23.50;99.90;;;;;;5115311;28;20027;-75
2023/08/25 11:53:09;;;;;;;12.48;6.38;;;23.60;99.90;;;;;;5115595;28;20024;-76
2023/08/25 11:55:35;;;;;;;10.57;4.95;;;23.70;99.90;;;;;;5115179;28;20019;-74
2023/08/25 11:58:08;;;;;;;15.20;6.45;;;23.70;99.90;;;;;;5115079;28;20020;-77
2023/08/25 12:00:37;;;;;;;13.27;5.40;;;23.70;99.90;;;;;;5083323;28;20024;-75
2023/08/25 12:03:04;;;;;;;11.55;4.78;;;23.90;99.90;;;;;;5094709;28;20063;-75
2023/08/25 12:05:30;;;;;;;9.25;4.97;;;24.20;99.90;;;;;;5094747;28;20081;-75
2023/08/25 12:08:02;;;;;;;8.60;4.53;;;24.60;99.90;;;;;;5094720;28;20069;-76
2023/08/25 12:10:34;;;;;;;10.60;5.25;;;25.00;99.90;;;;;;5094787;28;20429;-75
2023/08/25 12:13:00;;;;;;;10.50;5.85;;;25.60;99.90;;;;;;5094498;28;20494;-76
2023/08/25 12:15:25;;;;;;;13.82;6.95;;;26.00;99.90;;;;;;5094638;28;20102;-77
2023/08/25 12:17:51;;;;;;;13.38;7.97;;;26.20;99.90;;;;;;5094276;28;20433;-76
2023/08/25 12:20:18;;;;;;;18.92;10.80;;;26.30;99.90;;;;;;5076364;28;20110;-75
2023/08/25 12:22:57;;;;;;;23.70;13.18;;;25.90;99.90;;;;;;5075919;28;20028;-76
2023/08/25 12:25:23;;;;;;;21.90;12.80;;;25.50;99.90;;;;;;5077067;28;20445;-77
2023/08/25 12:27:49;;;;;;;25.15;12.95;;;25.00;99.90;;;;;;5077837;28;20024;-77
2023/08/25 12:30:15;;;;;;;24.35;13.35;;;24.70;99.90;;;;;;5114620;28;20072;-74